createdAt,value
2023-03-06T00:03:35.672Z,99125.55
2023-03-06T00:08:41.709Z,99125.87
2023-03-06T00:13:44.689Z,99119.89
2023-03-06T00:18:47.846Z,99116.66
2023-03-06T00:23:52.045Z,99118.50
2023-03-06T00:28:54.860Z,99115.30
2023-03-06T00:33:57.559Z,99115.11
2023-03-06T00:39:00.344Z,99114.38
2023-03-06T00:44:03.080Z,99121.66
2023-03-06T00:49:05.875Z,99116.82
2023-03-06T00:54:08.560Z,99114.20
2023-03-06T00:59:11.608Z,99109.52
2023-03-06T01:04:14.788Z,99109.05
2023-03-06T01:09:17.817Z,99106.65
2023-03-06T01:14:21.184Z,99102.98
2023-03-06T01:19:23.930Z,99100.11
2023-03-06T01:24:26.726Z,99105.02
2023-03-06T01:29:29.459Z,99098.95
2023-03-06T01:34:32.138Z,99092.88
2023-03-06T01:39:34.882Z,99094.37
2023-03-06T01:44:37.696Z,99094.11
2023-03-06T01:49:41.803Z,99095.38
2023-03-06T01:54:50.187Z,99092.23
2023-03-06T02:00:00.463Z,99088.55
2023-03-06T02:05:05.579Z,99088.15
2023-03-06T02:10:09.711Z,99082.62
2023-03-06T02:15:14.491Z,99083.48
2023-03-06T02:20:24.057Z,99077.13
2023-03-06T02:25:26.863Z,99076.55
2023-03-06T02:30:30.629Z,99078.27
2023-03-06T02:35:36.412Z,99083.05
2023-03-06T02:40:39.460Z,99081.14
2023-03-06T02:45:48.762Z,99083.79
2023-03-06T02:50:52.669Z,99082.36
2023-03-06T02:55:55.362Z,99074.60
2023-03-06T03:00:58.069Z,99071.39
2023-03-06T03:06:01.422Z,99072.07
2023-03-06T03:11:04.919Z,99067.55
2023-03-06T03:16:11.210Z,99067.98
2023-03-06T03:21:14.643Z,99061.38
2023-03-06T03:26:20.781Z,99064.04
2023-03-06T03:31:23.762Z,99059.67
2023-03-06T03:36:27.916Z,99062.28
2023-03-06T03:41:30.740Z,99062.82
2023-03-06T03:46:33.826Z,99063.04
2023-03-06T03:51:36.652Z,99058.77
2023-03-06T03:56:41.891Z,99053.58
2023-03-06T04:01:46.046Z,99053.89
2023-03-06T04:06:48.927Z,99047.56
2023-03-06T04:11:51.890Z,99050.30
2023-03-06T04:16:55.021Z,99048.06
2023-03-06T04:21:57.762Z,99045.10
2023-03-06T04:27:00.455Z,99044.16
2023-03-06T04:32:03.248Z,99041.95
2023-03-06T04:37:06.040Z,99043.40
2023-03-06T04:42:08.748Z,99041.40
2023-03-06T04:47:12.403Z,99037.00
2023-03-06T04:52:15.085Z,99034.21
2023-03-06T04:57:17.860Z,99035.60
2023-03-06T05:02:21.080Z,99031.73
2023-03-06T05:07:24.049Z,99036.85
2023-03-06T05:12:26.794Z,99039.02
2023-03-06T05:17:29.733Z,99038.73
2023-03-06T05:22:34.227Z,99039.48
2023-03-06T05:27:37.784Z,99035.58
2023-03-06T05:32:40.681Z,99033.80
2023-03-06T05:37:43.433Z,99032.95
2023-03-06T05:42:46.240Z,99037.00
2023-03-06T05:47:48.962Z,99041.20
2023-03-06T05:52:51.693Z,99045.70
2023-03-06T05:57:54.448Z,99041.59
2023-03-06T06:03:00.643Z,99039.09
2023-03-06T06:08:03.387Z,99037.71
2023-03-06T06:13:06.150Z,99036.83
2023-03-06T06:18:08.916Z,99046.34
2023-03-06T06:23:11.952Z,99047.49
2023-03-06T06:28:14.648Z,99049.49
2023-03-06T06:33:17.345Z,99056.13
2023-03-06T06:38:21.274Z,99052.88
2023-03-06T06:43:25.497Z,99055.05
2023-03-06T06:48:28.254Z,99054.64
2023-03-06T06:53:31.417Z,99050.46
2023-03-06T06:58:34.298Z,99048.61
2023-03-06T07:03:38.652Z,99049.61
2023-03-06T07:08:41.414Z,99054.36
2023-03-06T07:13:45.875Z,99049.63
2023-03-06T07:18:51.425Z,99052.25
2023-03-06T07:23:57.399Z,99053.42
2023-03-06T07:29:09.184Z,99057.73
2023-03-06T07:34:13.880Z,99058.40
2023-03-06T07:39:17.113Z,99055.48
2023-03-06T07:44:20.279Z,99054.23
2023-03-06T07:49:23.469Z,99063.77
2023-03-06T07:54:26.667Z,99061.46
2023-03-06T07:59:41.584Z,99058.83
2023-03-06T08:04:53.904Z,99062.33
2023-03-06T08:10:10.662Z,99058.61
2023-03-06T08:15:15.296Z,99062.61
2023-03-06T08:20:18.771Z,99068.39
2023-03-06T08:25:21.749Z,99070.05
2023-03-06T08:30:24.759Z,99068.77
2023-03-06T08:35:31.460Z,99062.79
2023-03-06T08:40:35.582Z,99060.51
2023-03-06T08:45:39.784Z,99064.79
2023-03-06T08:50:46.028Z,99068.98
2023-03-06T08:55:52.303Z,99075.08
2023-03-06T09:01:05.235Z,99071.58
2023-03-06T09:06:23.195Z,99068.50
2023-03-06T09:11:26.723Z,99071.31
2023-03-06T09:16:29.591Z,99069.42
2023-03-06T09:21:34.964Z,99070.13
2023-03-06T09:26:46.301Z,99067.05
2023-03-06T09:31:49.513Z,99065.36
2023-03-06T09:36:57.031Z,99062.93
2023-03-06T09:42:07.482Z,99062.52
2023-03-06T09:47:56.220Z,99061.05
2023-03-06T09:53:48.936Z,99059.82
2023-03-06T09:58:55.887Z,99059.27
2023-03-06T10:04:13.763Z,99040.56
2023-03-06T10:09:22.967Z,99039.27
2023-03-06T10:14:48.809Z,99037.68
2023-03-06T10:19:55.423Z,99032.83
2023-03-06T10:25:28.222Z,99030.29
2023-03-06T10:31:00.046Z,99034.24
2023-03-06T10:36:05.744Z,99033.42
2023-03-06T10:41:11.889Z,99034.48
2023-03-06T10:46:28.727Z,99025.22
2023-03-06T10:51:36.193Z,99023.38
2023-03-06T10:56:42.160Z,99020.88
2023-03-06T11:01:48.563Z,99019.11
2023-03-06T11:07:26.094Z,99010.88
2023-03-06T11:12:38.131Z,99010.41
2023-03-06T11:18:16.261Z,99001.46
2023-03-06T11:23:30.128Z,98991.04
2023-03-06T11:28:43.035Z,98989.17
2023-03-06T11:33:53.213Z,98990.17
2023-03-06T11:39:03.340Z,98987.48
2023-03-06T11:44:31.004Z,98982.75
2023-03-06T11:49:41.533Z,98984.64
2023-03-06T11:54:56.215Z,98984.10
2023-03-06T12:00:17.882Z,98987.42
2023-03-06T12:05:40.329Z,98985.33
2023-03-06T12:10:54.288Z,98983.86
2023-03-06T12:16:41.954Z,98976.08
2023-03-06T12:22:06.281Z,98977.09
2023-03-06T12:27:09.192Z,98973.19
2023-03-06T12:32:45.114Z,98968.49
2023-03-06T12:38:37.397Z,98976.46
2023-03-06T12:44:01.544Z,98977.38
2023-03-06T12:49:09.151Z,98976.34
2023-03-06T12:54:14.656Z,98970.34
2023-03-06T12:59:48.052Z,98964.90
2023-03-06T13:05:14.156Z,98962.02
2023-03-06T13:10:33.801Z,98963.08
2023-03-06T13:15:41.398Z,98964.17
2023-03-06T13:20:45.658Z,98962.66
2023-03-06T13:25:50.956Z,98961.30
2023-03-06T13:30:54.167Z,98958.78
2023-03-06T13:36:00.627Z,98960.47
2023-03-06T13:41:22.746Z,98957.30
2023-03-06T13:46:35.581Z,98955.75
2023-03-06T13:51:59.928Z,98955.92
2023-03-06T13:57:41.529Z,98953.23
2023-03-06T14:03:27.658Z,98959.13
2023-03-06T14:08:32.629Z,98950.63
2023-03-06T14:13:47.353Z,98954.41
2023-03-06T14:18:53.454Z,98959.13
2023-03-06T14:24:01.902Z,98954.64
2023-03-06T14:29:24.231Z,98950.69
2023-03-06T14:34:38.301Z,98950.33
2023-03-06T14:39:44.148Z,98945.11
2023-03-06T14:44:48.896Z,98944.46
2023-03-06T14:50:21.786Z,98939.70
2023-03-06T14:55:27.153Z,98941.76
2023-03-06T15:00:37.758Z,98939.22
2023-03-06T15:05:43.133Z,98941.95
2023-03-06T15:11:04.236Z,98941.64
2023-03-06T15:16:28.434Z,98941.02
2023-03-06T15:21:38.015Z,98935.16
2023-03-06T15:26:41.105Z,98940.12
2023-03-06T15:31:45.937Z,98939.81
2023-03-06T15:36:54.295Z,98940.13
2023-03-06T15:42:09.724Z,98937.58
2023-03-06T15:47:12.573Z,98936.55
2023-03-06T15:52:15.372Z,98942.11
2023-03-06T15:57:26.026Z,98936.79
2023-03-06T16:02:28.840Z,98934.46
2023-03-06T16:07:31.614Z,98939.62
2023-03-06T16:12:34.406Z,98936.69
2023-03-06T16:17:37.219Z,98933.39
2023-03-06T16:22:39.884Z,98939.13
2023-03-06T16:27:46.395Z,98936.89
2023-03-06T16:32:50.082Z,98938.46
2023-03-06T16:37:52.885Z,98938.60
2023-03-06T16:42:56.458Z,98944.73
2023-03-06T16:48:00.363Z,98940.79
2023-03-06T16:53:05.349Z,98942.29
2023-03-06T16:58:08.785Z,98938.67
2023-03-06T17:03:11.606Z,98934.29
2023-03-06T17:08:14.344Z,98935.73
2023-03-06T17:13:18.522Z,98942.77
2023-03-06T17:18:21.313Z,98943.65
2023-03-06T17:23:27.698Z,98946.85
2023-03-06T17:28:30.985Z,98947.13
2023-03-06T17:33:33.700Z,98949.16
2023-03-06T17:38:36.553Z,98947.69
2023-03-06T17:43:40.868Z,98945.27
2023-03-06T17:48:44.913Z,98943.55
2023-03-06T17:53:48.012Z,98944.10
2023-03-06T17:58:50.733Z,98944.02
2023-03-06T18:03:53.489Z,98946.02
2023-03-06T18:08:56.429Z,98946.25
2023-03-06T18:13:59.597Z,98941.92
2023-03-06T18:19:02.615Z,98942.44
2023-03-06T18:24:05.782Z,98947.45
2023-03-06T18:29:08.719Z,98950.13
2023-03-06T18:34:14.263Z,98952.06
2023-03-06T18:39:17.247Z,98954.98
2023-03-06T18:44:20.450Z,98957.13
2023-03-06T18:49:23.322Z,98955.70
2023-03-06T18:54:29.180Z,98959.20
2023-03-06T18:59:32.153Z,98955.06
2023-03-06T19:04:36.373Z,98954.56
2023-03-06T19:09:40.844Z,98953.70
2023-03-06T19:14:44.561Z,98958.44
2023-03-06T19:19:49.693Z,98951.80
2023-03-06T19:24:53.451Z,98949.24
2023-03-06T19:29:56.779Z,98949.76
2023-03-06T19:34:59.707Z,98951.55
2023-03-06T19:40:03.758Z,98948.43
2023-03-06T19:45:07.375Z,98948.56
2023-03-06T19:50:12.456Z,98949.26
2023-03-06T19:55:15.290Z,98952.56
2023-03-06T20:00:18.934Z,98948.80
2023-03-06T20:05:22.084Z,98946.05
2023-03-06T20:10:24.907Z,98952.89
2023-03-06T20:15:28.989Z,98954.98
2023-03-06T20:20:32.423Z,98954.11
2023-03-06T20:25:36.881Z,98958.16
2023-03-06T20:30:39.659Z,98956.04
2023-03-06T20:35:42.939Z,98958.29
2023-03-06T20:40:45.851Z,98958.02
2023-03-06T20:45:59.203Z,98952.56
2023-03-06T20:51:14.680Z,98955.31
2023-03-06T20:56:20.609Z,98955.36
2023-03-06T21:01:27.476Z,98954.05
2023-03-06T21:06:33.230Z,98954.80
2023-03-06T21:11:35.996Z,98952.98
2023-03-06T21:16:38.961Z,98953.54
2023-03-06T21:21:44.102Z,98955.59
2023-03-06T21:26:47.167Z,98946.11
2023-03-06T21:31:50.159Z,98950.25
2023-03-06T21:36:53.255Z,98953.16
2023-03-06T21:41:55.998Z,98953.70
2023-03-06T21:46:58.713Z,98953.76
2023-03-06T21:52:01.493Z,98953.57
2023-03-06T21:57:04.372Z,98959.58
2023-03-06T22:02:11.072Z,98961.49
2023-03-06T22:07:13.825Z,98958.60
2023-03-06T22:12:16.685Z,98957.98
2023-03-06T22:17:21.201Z,98957.98
2023-03-06T22:22:25.438Z,98958.70
2023-03-06T22:27:29.646Z,98960.55
2023-03-06T22:32:33.353Z,98955.23
2023-03-06T22:37:36.258Z,98953.14
2023-03-06T22:42:38.950Z,98950.43
2023-03-06T22:47:41.691Z,98951.02
2023-03-06T22:52:45.054Z,98952.33
2023-03-06T22:57:47.932Z,98951.38
2023-03-06T23:02:51.511Z,98952.36
2023-03-06T23:07:54.225Z,98947.66
2023-03-06T23:12:57.025Z,98948.38
2023-03-06T23:17:59.732Z,98947.08
2023-03-06T23:23:02.656Z,98950.38
2023-03-06T23:28:05.419Z,98952.41
2023-03-06T23:33:09.208Z,98954.06
2023-03-06T23:38:13.084Z,98949.59
2023-03-06T23:43:15.824Z,98950.95
2023-03-06T23:48:18.540Z,98949.94
2023-03-06T23:53:21.973Z,98947.14
2023-03-06T23:58:24.709Z,98953.46
